sensor_id;sensor_type;location;lat;lon;timestamp;pressure;altitude;pressure_sealevel;temperature;humidity
39681;BME280;26327;42.550;23.120;2022-08-16T07:06:41;92554.94;;;21.46;97.10
39681;BME280;26327;42.550;23.120;2022-08-16T07:09:07;92486.63;;;20.95;96.13
39681;BME280;26327;42.550;23.120;2022-08-16T07:11:32;92549.19;;;21.54;98.51
39681;BME280;26327;42.550;23.120;2022-08-16T07:13:58;92554.00;;;21.62;95.38
39681;BME280;26327;42.550;23.120;2022-08-16T07:16:24;92542.25;;;21.85;96.09
39681;BME280;26327;42.550;23.120;2022-08-16T07:18:49;92488.09;;;21.50;93.27
39681;BME280;26327;42.550;23.120;2022-08-16T07:21:17;92427.25;;;21.35;91.54
39681;BME280;26327;42.550;23.120;2022-08-16T07:23:43;92546.25;;;22.35;91.33
39681;BME280;26327;42.550;23.120;2022-08-16T07:26:13;92506.19;;;22.21;88.04
39681;BME280;26327;42.550;23.120;2022-08-16T07:28:40;92540.44;;;22.48;87.86
39681;BME280;26327;42.550;23.120;2022-08-16T07:31:05;92542.59;;;22.56;91.36
39681;BME280;26327;42.550;23.120;2022-08-16T07:33:33;92482.72;;;22.35;91.97
39681;BME280;26327;42.550;23.120;2022-08-16T07:35:59;92528.63;;;22.71;91.03
39681;BME280;26327;42.550;23.120;2022-08-16T07:38:25;92552.72;;;22.79;89.92
39681;BME280;26327;42.550;23.120;2022-08-16T07:40:53;92544.59;;;23.01;90.05
39681;BME280;26327;42.550;23.120;2022-08-16T07:43:19;92536.34;;;22.92;91.28
39681;BME280;26327;42.550;23.120;2022-08-16T07:45:45;92504.78;;;22.71;88.57
39681;BME280;26327;42.550;23.120;2022-08-16T07:48:10;92518.63;;;23.03;86.61
39681;BME280;26327;42.550;23.120;2022-08-16T07:50:35;92538.25;;;23.28;88.38
39681;BME280;26327;42.550;23.120;2022-08-16T07:53:01;92544.09;;;23.24;84.07
39681;BME280;26327;42.550;23.120;2022-08-16T07:55:27;92504.03;;;23.16;88.07
39681;BME280;26327;42.550;23.120;2022-08-16T07:57:52;92502.97;;;23.02;87.10
39681;BME280;26327;42.550;23.120;2022-08-16T08:00:18;92434.59;;;22.78;84.12
39681;BME280;26327;42.550;23.120;2022-08-16T08:02:45;92478.88;;;23.23;87.44
39681;BME280;26327;42.550;23.120;2022-08-16T08:05:12;92545.41;;;23.63;86.07
39681;BME280;26327;42.550;23.120;2022-08-16T08:07:37;92498.22;;;23.39;82.34
39681;BME280;26327;42.550;23.120;2022-08-16T08:10:04;92444.97;;;23.20;83.15
39681;BME280;26327;42.550;23.120;2022-08-16T08:12:30;92560.78;;;23.91;84.30
39681;BME280;26327;42.550;23.120;2022-08-16T08:14:55;92501.13;;;23.63;83.73
39681;BME280;26327;42.550;23.120;2022-08-16T08:17:20;92507.72;;;23.86;80.36
39681;BME280;26327;42.550;23.120;2022-08-16T08:19:47;92563.63;;;24.20;80.69
39681;BME280;26327;42.550;23.120;2022-08-16T08:22:12;92557.34;;;23.75;80.72
39681;BME280;26327;42.550;23.120;2022-08-16T08:24:38;92563.66;;;24.05;83.07
39681;BME280;26327;42.550;23.120;2022-08-16T08:27:05;92531.06;;;23.84;79.55
39681;BME280;26327;42.550;23.120;2022-08-16T08:29:33;92527.31;;;24.00;83.31
39681;BME280;26327;42.550;23.120;2022-08-16T08:31:59;92553.28;;;24.29;81.13
39681;BME280;26327;42.550;23.120;2022-08-16T08:34:25;92550.00;;;24.52;82.00
39681;BME280;26327;42.550;23.120;2022-08-16T08:36:51;92540.50;;;24.41;80.44
39681;BME280;26327;42.550;23.120;2022-08-16T08:39:16;92526.13;;;24.47;83.02
39681;BME280;26327;42.550;23.120;2022-08-16T08:41:42;92515.03;;;24.25;82.76
39681;BME280;26327;42.550;23.120;2022-08-16T08:44:09;92586.63;;;24.65;80.64
39681;BME280;26327;42.550;23.120;2022-08-16T08:46:35;92580.22;;;24.66;81.18
39681;BME280;26327;42.550;23.120;2022-08-16T08:49:01;92582.13;;;24.61;81.68
39681;BME280;26327;42.550;23.120;2022-08-16T08:51:28;92577.59;;;24.61;81.53
39681;BME280;26327;42.550;23.120;2022-08-16T08:53:54;92537.34;;;24.29;82.45
39681;BME280;26327;42.550;23.120;2022-08-16T08:56:19;92523.25;;;24.33;82.12
39681;BME280;26327;42.550;23.120;2022-08-16T08:58:45;92519.75;;;24.43;79.81
39681;BME280;26327;42.550;23.120;2022-08-16T09:01:10;92578.50;;;24.91;79.67
39681;BME280;26327;42.550;23.120;2022-08-16T09:03:37;92527.03;;;24.76;81.33
39681;BME280;26327;42.550;23.120;2022-08-16T09:06:05;92584.88;;;25.39;79.45
39681;BME280;26327;42.550;23.120;2022-08-16T09:08:32;92414.69;;;24.27;79.79
39681;BME280;26327;42.550;23.120;2022-08-16T09:10:59;92519.22;;;25.00;78.18
39681;BME280;26327;42.550;23.120;2022-08-16T09:13:25;92583.50;;;25.47;79.58
39681;BME280;26327;42.550;23.120;2022-08-16T09:15:51;92583.44;;;25.57;78.45
39681;BME280;26327;42.550;23.120;2022-08-16T09:18:18;92481.66;;;24.68;76.16
39681;BME280;26327;42.550;23.120;2022-08-16T09:20:44;92525.03;;;25.07;77.37
39681;BME280;26327;42.550;23.120;2022-08-16T09:23:11;92595.13;;;25.61;76.26
39681;BME280;26327;42.550;23.120;2022-08-16T09:25:37;92588.22;;;25.60;76.49
39681;BME280;26327;42.550;23.120;2022-08-16T09:28:05;92581.25;;;25.98;78.87
39681;BME280;26327;42.550;23.120;2022-08-16T09:30:32;92567.13;;;26.02;76.23
39681;BME280;26327;42.550;23.120;2022-08-16T09:33:02;92466.78;;;25.40;75.75
39681;BME280;26327;42.550;23.120;2022-08-16T09:35:28;92572.09;;;26.09;76.31
39681;BME280;26327;42.550;23.120;2022-08-16T09:37:53;92589.44;;;26.35;73.17
39681;BME280;26327;42.550;23.120;2022-08-16T09:40:21;92567.75;;;26.18;77.31
39681;BME280;26327;42.550;23.120;2022-08-16T09:42:47;92550.53;;;26.11;73.12
39681;BME280;26327;42.550;23.120;2022-08-16T09:45:13;92569.13;;;26.40;73.06
39681;BME280;26327;42.550;23.120;2022-08-16T09:47:39;92522.09;;;26.54;74.71
39681;BME280;26327;42.550;23.120;2022-08-16T09:50:09;92575.94;;;27.17;69.20
39681;BME280;26327;42.550;23.120;2022-08-16T09:52:36;92576.78;;;27.13;70.31
39681;BME280;26327;42.550;23.120;2022-08-16T09:55:04;92539.53;;;27.08;73.15
39681;BME280;26327;42.550;23.120;2022-08-16T09:57:30;92577.28;;;27.52;71.44
39681;BME280;26327;42.550;23.120;2022-08-16T09:59:56;92524.44;;;27.36;70.55
39681;BME280;26327;42.550;23.120;2022-08-16T10:02:21;92567.00;;;27.78;70.62
39681;BME280;26327;42.550;23.120;2022-08-16T10:04:48;92563.13;;;27.71;73.30
39681;BME280;26327;42.550;23.120;2022-08-16T10:07:14;92527.44;;;27.99;68.00
39681;BME280;26327;42.550;23.120;2022-08-16T10:09:39;92555.63;;;28.19;66.40
39681;BME280;26327;42.550;23.120;2022-08-16T10:12:05;92514.31;;;27.70;65.69
39681;BME280;26327;42.550;23.120;2022-08-16T10:14:49;92554.72;;;28.42;65.68
39681;BME280;26327;42.550;23.120;2022-08-16T10:17:15;92548.47;;;28.61;62.67
39681;BME280;26327;42.550;23.120;2022-08-16T10:19:41;92528.16;;;28.60;63.77
39681;BME280;26327;42.550;23.120;2022-08-16T10:22:06;92563.00;;;28.55;64.53
39681;BME280;26327;42.550;23.120;2022-08-16T10:24:32;92517.06;;;28.66;62.90
39681;BME280;26327;42.550;23.120;2022-08-16T10:26:57;92578.09;;;28.92;61.49
39681;BME280;26327;42.550;23.120;2022-08-16T10:29:23;92565.34;;;29.61;59.37
39681;BME280;26327;42.550;23.120;2022-08-16T10:31:48;92570.44;;;30.16;59.59
39681;BME280;26327;42.550;23.120;2022-08-16T10:34:14;92575.63;;;31.22;61.90
39681;BME280;26327;42.550;23.120;2022-08-16T10:36:39;92561.88;;;31.33;56.34
39681;BME280;26327;42.550;23.120;2022-08-16T10:39:05;92563.06;;;30.52;56.31
39681;BME280;26327;42.550;23.120;2022-08-16T10:41:32;92573.38;;;30.28;57.52
39681;BME280;26327;42.550;23.120;2022-08-16T10:43:57;92576.84;;;30.06;57.12
39681;BME280;26327;42.550;23.120;2022-08-16T10:46:23;92544.72;;;29.84;59.42
39681;BME280;26327;42.550;23.120;2022-08-16T10:48:49;92556.50;;;29.60;59.30
39681;BME280;26327;42.550;23.120;2022-08-16T10:51:14;92513.13;;;29.50;59.38
39681;BME280;26327;42.550;23.120;2022-08-16T10:53:40;92583.47;;;30.08;57.24
39681;BME280;26327;42.550;23.120;2022-08-16T10:56:09;92523.28;;;29.39;60.03
39681;BME280;26327;42.550;23.120;2022-08-16T10:58:35;92585.81;;;29.43;58.30
39681;BME280;26327;42.550;23.120;2022-08-16T11:01:03;92555.56;;;29.42;60.61
39681;BME280;26327;42.550;23.120;2022-08-16T11:03:29;92506.69;;;29.14;58.92
39681;BME280;26327;42.550;23.120;2022-08-16T11:05:55;92546.59;;;29.61;63.19
39681;BME280;26327;42.550;23.120;2022-08-16T11:08:20;92536.69;;;29.61;62.92
39681;BME280;26327;42.550;23.120;2022-08-16T11:10:47;92576.06;;;30.05;58.19
39681;BME280;26327;42.550;23.120;2022-08-16T11:13:19;92501.00;;;30.28;55.12
39681;BME280;26327;42.550;23.120;2022-08-16T11:15:45;92561.16;;;30.84;54.41
39681;BME280;26327;42.550;23.120;2022-08-16T11:18:12;92550.56;;;31.70;52.09
39681;BME280;26327;42.550;23.120;2022-08-16T11:20:39;92541.88;;;33.13;50.99
39681;BME280;26327;42.550;23.120;2022-08-16T11:23:06;92513.50;;;34.12;50.86
39681;BME280;26327;42.550;23.120;2022-08-16T11:25:32;92552.13;;;33.20;46.90
39681;BME280;26327;42.550;23.120;2022-08-16T11:27:59;92541.38;;;31.80;49.41
39681;BME280;26327;42.550;23.120;2022-08-16T11:30:26;92522.34;;;30.98;52.87
39681;BME280;26327;42.550;23.120;2022-08-16T11:32:54;92522.47;;;30.76;50.26
39681;BME280;26327;42.550;23.120;2022-08-16T11:35:24;92531.03;;;30.95;51.59
39681;BME280;26327;42.550;23.120;2022-08-16T11:37:54;92475.66;;;30.03;50.59
39681;BME280;26327;42.550;23.120;2022-08-16T11:40:21;92486.06;;;30.44;52.42
39681;BME280;26327;42.550;23.120;2022-08-16T11:42:47;92530.91;;;31.61;48.68
39681;BME280;26327;42.550;23.120;2022-08-16T11:45:12;92497.88;;;33.51;48.71
39681;BME280;26327;42.550;23.120;2022-08-16T11:47:38;92484.91;;;33.98;45.79
39681;BME280;26327;42.550;23.120;2022-08-16T11:50:05;92527.72;;;34.33;42.51
39681;BME280;26327;42.550;23.120;2022-08-16T11:52:35;92480.00;;;33.46;42.17
39681;BME280;26327;42.550;23.120;2022-08-16T11:55:03;92493.00;;;32.73;42.84
39681;BME280;26327;42.550;23.120;2022-08-16T11:57:29;92505.41;;;32.10;46.15
39681;BME280;26327;42.550;23.120;2022-08-16T11:59:54;92471.72;;;31.31;44.72
39681;BME280;26327;42.550;23.120;2022-08-16T12:02:20;92471.41;;;30.42;43.38
39681;BME280;26327;42.550;23.120;2022-08-16T12:04:45;92461.06;;;30.66;45.76
39681;BME280;26327;42.550;23.120;2022-08-16T12:07:11;92507.50;;;32.90;43.29
39681;BME280;26327;42.550;23.120;2022-08-16T12:09:37;92479.19;;;32.83;41.79
39681;BME280;26327;42.550;23.120;2022-08-16T12:12:03;92508.91;;;33.16;41.18
39681;BME280;26327;42.550;23.120;2022-08-16T12:14:30;92493.56;;;35.10;38.40
39681;BME280;26327;42.550;23.120;2022-08-16T12:16:57;92478.56;;;36.84;37.73
39681;BME280;26327;42.550;23.120;2022-08-16T12:19:23;92500.66;;;37.37;32.13
39681;BME280;26327;42.550;23.120;2022-08-16T12:21:49;92493.38;;;36.27;31.60
39681;BME280;26327;42.550;23.120;2022-08-16T12:24:15;92487.03;;;34.99;33.25
39681;BME280;26327;42.550;23.120;2022-08-16T12:26:41;92511.31;;;34.05;35.05
39681;BME280;26327;42.550;23.120;2022-08-16T12:29:06;92518.22;;;33.19;37.13
39681;BME280;26327;42.550;23.120;2022-08-16T12:31:32;92465.16;;;32.99;37.43
39681;BME280;26327;42.550;23.120;2022-08-16T12:33:59;92519.28;;;34.01;37.13
39681;BME280;26327;42.550;23.120;2022-08-16T12:36:25;92465.69;;;32.16;38.98
39681;BME280;26327;42.550;23.120;2022-08-16T12:38:51;92498.03;;;31.64;40.05
39681;BME280;26327;42.550;23.120;2022-08-16T12:41:21;92529.53;;;30.72;40.04
39681;BME280;26327;42.550;23.120;2022-08-16T12:43:48;92520.84;;;31.23;40.60
39681;BME280;26327;42.550;23.120;2022-08-16T12:46:14;92509.09;;;31.62;41.95
39681;BME280;26327;42.550;23.120;2022-08-16T12:48:42;92500.75;;;31.55;42.50
39681;BME280;26327;42.550;23.120;2022-08-16T12:51:32;92514.38;;;32.99;40.17
39681;BME280;26327;42.550;23.120;2022-08-16T12:54:02;92507.34;;;33.36;36.15
39681;BME280;26327;42.550;23.120;2022-08-16T12:56:35;92446.34;;;34.67;34.47
39681;BME280;26327;42.550;23.120;2022-08-16T12:59:07;92461.78;;;36.15;32.96
39681;BME280;26327;42.550;23.120;2022-08-16T13:01:34;92411.19;;;37.17;30.08
39681;BME280;26327;42.550;23.120;2022-08-16T13:04:01;92490.25;;;38.81;26.98
39681;BME280;26327;42.550;23.120;2022-08-16T13:06:27;92446.94;;;39.48;26.86
39681;BME280;26327;42.550;23.120;2022-08-16T13:08:53;92447.41;;;39.87;25.56
39681;BME280;26327;42.550;23.120;2022-08-16T13:11:39;92493.91;;;40.09;23.85
39681;BME280;26327;42.550;23.120;2022-08-16T13:14:10;92487.09;;;40.66;21.71
39681;BME280;26327;42.550;23.120;2022-08-16T13:16:35;92472.69;;;40.21;23.58
39681;BME280;26327;42.550;23.120;2022-08-16T13:19:01;92414.00;;;39.53;22.81
39681;BME280;26327;42.550;23.120;2022-08-16T13:21:27;92470.16;;;38.63;25.01
39681;BME280;26327;42.550;23.120;2022-08-16T13:23:52;92480.41;;;37.50;28.21
39681;BME280;26327;42.550;23.120;2022-08-16T13:26:18;92456.38;;;35.31;29.25
39681;BME280;26327;42.550;23.120;2022-08-16T13:28:44;92474.31;;;34.26;31.67
39681;BME280;26327;42.550;23.120;2022-08-16T13:31:09;92466.75;;;33.74;33.23
39681;BME280;26327;42.550;23.120;2022-08-16T13:33:35;92492.97;;;34.31;32.27
39681;BME280;26327;42.550;23.120;2022-08-16T13:36:04;92419.28;;;32.95;34.68
39681;BME280;26327;42.550;23.120;2022-08-16T13:38:32;92476.03;;;32.81;36.46
39681;BME280;26327;42.550;23.120;2022-08-16T13:40:58;92423.72;;;32.03;37.65
39681;BME280;26327;42.550;23.120;2022-08-16T13:43:25;92478.59;;;31.93;39.96
39681;BME280;26327;42.550;23.120;2022-08-16T13:45:50;92490.66;;;31.35;39.10
39681;BME280;26327;42.550;23.120;2022-08-16T13:48:16;92468.53;;;30.95;40.90
39681;BME280;26327;42.550;23.120;2022-08-16T13:50:42;92465.16;;;30.24;40.86
39681;BME280;26327;42.550;23.120;2022-08-16T13:53:08;92408.94;;;29.93;41.73
39681;BME280;26327;42.550;23.120;2022-08-16T13:55:34;92493.78;;;30.46;42.09
39681;BME280;26327;42.550;23.120;2022-08-16T13:57:59;92417.00;;;30.01;41.64
39681;BME280;26327;42.550;23.120;2022-08-16T14:00:25;92495.03;;;30.79;40.63
39681;BME280;26327;42.550;23.120;2022-08-16T14:02:51;92482.94;;;31.34;41.39
39681;BME280;26327;42.550;23.120;2022-08-16T14:05:17;92474.69;;;31.56;41.88
39681;BME280;26327;42.550;23.120;2022-08-16T14:07:42;92475.97;;;31.50;40.20
39681;BME280;26327;42.550;23.120;2022-08-16T14:10:10;92449.00;;;31.29;40.46
39681;BME280;26327;42.550;23.120;2022-08-16T14:12:37;92430.69;;;30.31;39.59
39681;BME280;26327;42.550;23.120;2022-08-16T14:15:05;92433.06;;;30.32;41.05
39681;BME280;26327;42.550;23.120;2022-08-16T14:17:31;92470.69;;;30.67;42.09
39681;BME280;26327;42.550;23.120;2022-08-16T14:19:57;92481.84;;;30.12;40.16
39681;BME280;26327;42.550;23.120;2022-08-16T14:22:28;92464.75;;;29.99;41.87
39681;BME280;26327;42.550;23.120;2022-08-16T14:24:55;92498.81;;;30.38;43.87
39681;BME280;26327;42.550;23.120;2022-08-16T14:27:22;92421.72;;;29.65;42.25
39681;BME280;26327;42.550;23.120;2022-08-16T14:29:49;92429.91;;;29.37;44.68
39681;BME280;26327;42.550;23.120;2022-08-16T14:32:17;92428.63;;;29.35;43.78
39681;BME280;26327;42.550;23.120;2022-08-16T14:34:43;92488.97;;;29.41;45.71
39681;BME280;26327;42.550;23.120;2022-08-16T14:37:08;92424.25;;;28.94;46.85
39681;BME280;26327;42.550;23.120;2022-08-16T14:39:34;92427.34;;;28.74;47.18
39681;BME280;26327;42.550;23.120;2022-08-16T14:42:07;92452.69;;;28.90;49.87
39681;BME280;26327;42.550;23.120;2022-08-16T14:44:34;92437.09;;;28.56;49.94
39681;BME280;26327;42.550;23.120;2022-08-16T14:47:00;92512.63;;;28.89;51.16
39681;BME280;26327;42.550;23.120;2022-08-16T14:49:26;92514.19;;;28.90;51.98
39681;BME280;26327;42.550;23.120;2022-08-16T14:51:51;92517.06;;;28.66;49.28
39681;BME280;26327;42.550;23.120;2022-08-16T14:54:17;92440.09;;;28.41;52.94
39681;BME280;26327;42.550;23.120;2022-08-16T14:56:42;92516.09;;;28.48;49.47
39681;BME280;26327;42.550;23.120;2022-08-16T14:59:11;92497.19;;;28.31;50.59
39681;BME280;26327;42.550;23.120;2022-08-16T15:01:36;92503.63;;;28.58;52.44
39681;BME280;26327;42.550;23.120;2022-08-16T15:04:02;92478.91;;;28.38;50.21
39681;BME280;26327;42.550;23.120;2022-08-16T15:06:27;92460.84;;;28.03;49.16
39681;BME280;26327;42.550;23.120;2022-08-16T15:08:54;92506.56;;;28.01;50.62
39681;BME280;26327;42.550;23.120;2022-08-16T15:11:20;92447.66;;;27.33;51.55
39681;BME280;26327;42.550;23.120;2022-08-16T15:13:45;92515.66;;;28.14;50.99
39681;BME280;26327;42.550;23.120;2022-08-16T15:16:11;92487.63;;;28.80;50.11
39681;BME280;26327;42.550;23.120;2022-08-16T15:18:36;92405.25;;;28.32;50.58
39681;BME280;26327;42.550;23.120;2022-08-16T15:21:03;92520.31;;;29.27;49.09
39681;BME280;26327;42.550;23.120;2022-08-16T15:23:29;92467.50;;;28.82;49.88
39681;BME280;26327;42.550;23.120;2022-08-16T15:25:55;92496.69;;;28.57;48.87
39681;BME280;26327;42.550;23.120;2022-08-16T15:28:22;92533.56;;;28.82;50.47
39681;BME280;26327;42.550;23.120;2022-08-16T15:30:48;92492.81;;;29.12;51.74
39681;BME280;26327;42.550;23.120;2022-08-16T15:33:19;92451.94;;;29.57;47.12
39681;BME280;26327;42.550;23.120;2022-08-16T15:35:46;92480.75;;;30.13;47.47
39681;BME280;26327;42.550;23.120;2022-08-16T15:38:12;92513.44;;;30.63;46.67
39681;BME280;26327;42.550;23.120;2022-08-16T15:40:38;92462.06;;;30.87;43.99
39681;BME280;26327;42.550;23.120;2022-08-16T15:43:06;92469.78;;;31.06;42.03
39681;BME280;26327;42.550;23.120;2022-08-16T15:45:34;92514.69;;;29.95;44.02
39681;BME280;26327;42.550;23.120;2022-08-16T15:48:19;92522.41;;;29.74;45.26
39681;BME280;26327;42.550;23.120;2022-08-16T15:50:48;92451.59;;;29.13;47.78
39681;BME280;26327;42.550;23.120;2022-08-16T15:53:24;92516.13;;;29.12;48.71
39681;BME280;26327;42.550;23.120;2022-08-16T15:55:51;92460.88;;;28.44;48.65
39681;BME280;26327;42.550;23.120;2022-08-16T15:58:17;92511.59;;;28.16;50.78
39681;BME280;26327;42.550;23.120;2022-08-16T16:00:45;92405.19;;;26.85;52.46
39681;BME280;26327;42.550;23.120;2022-08-16T16:03:17;92486.13;;;27.64;52.29
39681;BME280;26327;42.550;23.120;2022-08-16T16:05:46;92517.44;;;27.40;52.60
39681;BME280;26327;42.550;23.120;2022-08-16T16:08:13;92528.47;;;27.33;54.18
39681;BME280;26327;42.550;23.120;2022-08-16T16:10:40;92510.94;;;26.89;54.84
39681;BME280;26327;42.550;23.120;2022-08-16T16:13:08;92502.59;;;26.77;54.56
39681;BME280;26327;42.550;23.120;2022-08-16T16:15:40;92524.13;;;26.81;55.86
39681;BME280;26327;42.550;23.120;2022-08-16T16:18:07;92521.53;;;26.57;57.24
39681;BME280;26327;42.550;23.120;2022-08-16T16:20:32;92461.06;;;26.10;57.56
39681;BME280;26327;42.550;23.120;2022-08-16T16:23:03;92507.84;;;26.16;60.57
39681;BME280;26327;42.550;23.120;2022-08-16T16:25:30;92453.47;;;26.22;58.83
39681;BME280;26327;42.550;23.120;2022-08-16T16:27:56;92450.97;;;25.83;59.23
39681;BME280;26327;42.550;23.120;2022-08-16T16:30:22;92529.91;;;26.21;60.28
39681;BME280;26327;42.550;23.120;2022-08-16T16:32:48;92530.13;;;26.25;60.75
39681;BME280;26327;42.550;23.120;2022-08-16T16:35:14;92407.31;;;25.60;60.34
39681;BME280;26327;42.550;23.120;2022-08-16T16:37:39;92479.34;;;26.16;63.27
39681;BME280;26327;42.550;23.120;2022-08-16T16:40:10;92518.59;;;26.34;67.38
39681;BME280;26327;42.550;23.120;2022-08-16T16:42:36;92526.78;;;26.38;69.71
39681;BME280;26327;42.550;23.120;2022-08-16T16:45:05;92475.16;;;26.34;67.71
39681;BME280;26327;42.550;23.120;2022-08-16T16:47:32;92533.22;;;26.80;71.84
39681;BME280;26327;42.550;23.120;2022-08-16T16:49:59;92535.53;;;26.44;73.92
39681;BME280;26327;42.550;23.120;2022-08-16T16:52:26;92474.81;;;25.93;78.22
39681;BME280;26327;42.550;23.120;2022-08-16T16:54:55;92549.72;;;26.10;76.08
39681;BME280;26327;42.550;23.120;2022-08-16T16:57:20;92478.84;;;25.61;77.17
39681;BME280;26327;42.550;23.120;2022-08-16T17:00:05;92529.06;;;25.73;77.36
39681;BME280;26327;42.550;23.120;2022-08-16T17:02:31;92549.44;;;25.83;77.96
39681;BME280;26327;42.550;23.120;2022-08-16T17:04:57;92548.16;;;25.80;78.85
39681;BME280;26327;42.550;23.120;2022-08-16T17:07:23;92478.88;;;25.27;80.81
39681;BME280;26327;42.550;23.120;2022-08-16T17:09:48;92529.50;;;25.46;81.80
39681;BME280;26327;42.550;23.120;2022-08-16T17:12:14;92552.66;;;25.46;83.17
39681;BME280;26327;42.550;23.120;2022-08-16T17:14:39;92549.13;;;25.21;83.34
39681;BME280;26327;42.550;23.120;2022-08-16T17:17:06;92484.63;;;24.56;84.87
39681;BME280;26327;42.550;23.120;2022-08-16T17:19:33;92554.16;;;24.73;85.16
39681;BME280;26327;42.550;23.120;2022-08-16T17:21:59;92531.22;;;24.38;85.41
39681;BME280;26327;42.550;23.120;2022-08-16T17:24:25;92537.34;;;24.34;85.86
39681;BME280;26327;42.550;23.120;2022-08-16T17:26:50;92557.47;;;24.45;87.12
39681;BME280;26327;42.550;23.120;2022-08-16T17:29:16;92503.69;;;23.99;89.40
39681;BME280;26327;42.550;23.120;2022-08-16T17:31:44;92552.78;;;24.01;90.22
39681;BME280;26327;42.550;23.120;2022-08-16T17:34:12;92562.69;;;23.65;94.83
39681;BME280;26327;42.550;23.120;2022-08-16T17:36:38;92500.34;;;23.27;94.27
39681;BME280;26327;42.550;23.120;2022-08-16T17:39:04;92553.88;;;23.44;93.72
39681;BME280;26327;42.550;23.120;2022-08-16T17:41:32;92568.19;;;23.53;97.35
39681;BME280;26327;42.550;23.120;2022-08-16T17:43:58;92575.63;;;23.41;93.72
39681;BME280;26327;42.550;23.120;2022-08-16T17:46:23;92512.25;;;22.84;96.68
39681;BME280;26327;42.550;23.120;2022-08-16T17:48:49;92542.44;;;22.93;97.60
39681;BME280;26327;42.550;23.120;2022-08-16T17:51:15;92555.44;;;22.84;98.13
39681;BME280;26327;42.550;23.120;2022-08-16T17:53:41;92559.03;;;22.68;97.03
39681;BME280;26327;42.550;23.120;2022-08-16T17:56:07;92530.13;;;22.46;96.89
39681;BME280;26327;42.550;23.120;2022-08-16T17:58:34;92508.56;;;22.17;98.85
39681;BME280;26327;42.550;23.120;2022-08-16T18:01:00;92588.66;;;22.55;98.80
39681;BME280;26327;42.550;23.120;2022-08-16T18:03:32;92566.00;;;22.17;99.44
39681;BME280;26327;42.550;23.120;2022-08-16T18:06:02;92465.66;;;21.53;99.29
39681;BME280;26327;42.550;23.120;2022-08-16T18:08:28;92574.69;;;22.12;100.00
39681;BME280;26327;42.550;23.120;2022-08-16T18:10:54;92570.63;;;21.94;100.00
39681;BME280;26327;42.550;23.120;2022-08-16T18:13:21;92600.59;;;22.05;100.00
39681;BME280;26327;42.550;23.120;2022-08-16T18:15:46;92567.50;;;21.65;100.00
39681;BME280;26327;42.550;23.120;2022-08-16T18:18:12;92465.47;;;20.90;100.00
39681;BME280;26327;42.550;23.120;2022-08-16T18:20:38;92573.13;;;21.37;100.00
39681;BME280;26327;42.550;23.120;2022-08-16T18:23:25;92614.53;;;21.58;100.00
39681;BME280;26327;42.550;23.120;2022-08-16T18:25:54;92605.13;;;21.41;100.00
39681;BME280;26327;42.550;23.120;2022-08-16T18:28:20;92588.72;;;21.12;100.00
39681;BME280;26327;42.550;23.120;2022-08-16T18:30:45;92620.63;;;21.05;100.00
39681;BME280;26327;42.550;23.120;2022-08-16T18:33:12;92571.53;;;20.82;100.00
39681;BME280;26327;42.550;23.120;2022-08-16T18:35:39;92557.16;;;20.73;100.00
39681;BME280;26327;42.550;23.120;2022-08-16T18:38:05;92628.63;;;21.15;100.00
39681;BME280;26327;42.550;23.120;2022-08-16T18:40:31;92627.75;;;21.04;100.00
39681;BME280;26327;42.550;23.120;2022-08-16T18:43:09;92627.19;;;21.02;100.00
39681;BME280;26327;42.550;23.120;2022-08-16T18:45:37;92570.13;;;20.74;100.00
39681;BME280;26327;42.550;23.120;2022-08-16T18:48:04;92628.88;;;21.14;100.00
39681;BME280;26327;42.550;23.120;2022-08-16T18:50:31;92623.47;;;20.98;100.00
39681;BME280;26327;42.550;23.120;2022-08-16T18:52:59;92554.78;;;20.45;100.00
39681;BME280;26327;42.550;23.120;2022-08-16T18:55:27;92628.94;;;20.92;100.00
39681;BME280;26327;42.550;23.120;2022-08-16T18:57:53;92649.28;;;21.18;99.99
39681;BME280;26327;42.550;23.120;2022-08-16T19:00:22;92532.38;;;20.47;99.67
39681;BME280;26327;42.550;23.120;2022-08-16T19:02:48;92650.38;;;21.22;100.00
39681;BME280;26327;42.550;23.120;2022-08-16T19:05:20;92626.84;;;21.21;100.00
39681;BME280;26327;42.550;23.120;2022-08-16T19:07:46;92632.38;;;21.19;99.33
39681;BME280;26327;42.550;23.120;2022-08-16T19:10:12;92597.50;;;20.90;99.13
39681;BME280;26327;42.550;23.120;2022-08-16T19:12:37;92625.50;;;20.91;99.09
39681;BME280;26327;42.550;23.120;2022-08-16T19:15:05;92600.41;;;20.67;98.25
39681;BME280;26327;42.550;23.120;2022-08-16T19:17:32;92593.28;;;20.67;98.15
39681;BME280;26327;42.550;23.120;2022-08-16T19:19:58;92685.72;;;21.38;96.81
39681;BME280;26327;42.550;23.120;2022-08-16T19:22:28;92609.88;;;20.63;99.03
39681;BME280;26327;42.550;23.120;2022-08-16T19:24:54;92691.75;;;21.12;98.95
39681;BME280;26327;42.550;23.120;2022-08-16T19:27:20;92659.41;;;20.99;99.13
39681;BME280;26327;42.550;23.120;2022-08-16T19:29:46;92682.16;;;21.27;99.01
39681;BME280;26327;42.550;23.120;2022-08-16T19:32:24;92619.94;;;20.88;98.17
39681;BME280;26327;42.550;23.120;2022-08-16T19:34:50;92696.75;;;21.30;98.78
39681;BME280;26327;42.550;23.120;2022-08-16T19:37:16;92668.47;;;21.30;99.04
39681;BME280;26327;42.550;23.120;2022-08-16T19:39:42;92703.72;;;21.41;99.05
39681;BME280;26327;42.550;23.120;2022-08-16T19:42:11;92705.16;;;21.54;99.04
39681;BME280;26327;42.550;23.120;2022-08-16T19:44:38;92698.78;;;21.50;97.52
39681;BME280;26327;42.550;23.120;2022-08-16T19:47:03;92696.09;;;21.45;97.93
39681;BME280;26327;42.550;23.120;2022-08-16T19:49:29;92694.88;;;21.57;98.65
39681;BME280;26327;42.550;23.120;2022-08-16T19:51:55;92642.84;;;21.31;98.01
39681;BME280;26327;42.550;23.120;2022-08-16T19:54:20;92680.63;;;21.58;98.13